createdAt,value
2023-07-25T00:00:44.742Z,10.65
2023-07-25T00:03:14.709Z,11.45
2023-07-25T00:05:44.396Z,12.27
2023-07-25T00:08:14.183Z,12.35
2023-07-25T00:10:45.660Z,11.00
2023-07-25T00:13:15.402Z,10.30
2023-07-25T00:15:45.451Z,10.48
2023-07-25T00:18:15.615Z,11.43
2023-07-25T00:20:45.741Z,12.63
2023-07-25T00:23:15.438Z,9.90
2023-07-25T00:25:45.525Z,11.00
2023-07-25T00:28:15.217Z,11.00
2023-07-25T00:30:44.936Z,11.13
2023-07-25T00:33:14.627Z,12.85
2023-07-25T00:35:45.107Z,11.73
2023-07-25T00:38:14.810Z,14.50
2023-07-25T00:40:44.494Z,12.07
2023-07-25T00:43:14.286Z,10.43
2023-07-25T00:45:47.494Z,11.88
2023-07-25T00:48:17.219Z,11.25
2023-07-25T00:50:47.534Z,10.43
2023-07-25T00:53:19.134Z,12.32
2023-07-25T00:55:52.531Z,10.95
2023-07-25T00:58:22.611Z,11.05
2023-07-25T01:00:52.299Z,11.77
2023-07-25T01:03:22.691Z,11.35
2023-07-25T01:05:52.424Z,10.63
2023-07-25T01:08:25.134Z,11.75
2023-07-25T01:10:54.913Z,10.80
2023-07-25T01:13:26.250Z,11.60
2023-07-25T01:15:56.188Z,12.10
2023-07-25T01:18:26.380Z,11.35
2023-07-25T01:20:56.804Z,11.90
2023-07-25T01:23:26.512Z,11.70
2023-07-25T01:25:56.587Z,11.57
2023-07-25T01:28:26.766Z,11.75
2023-07-25T01:30:56.506Z,12.73
2023-07-25T01:33:26.473Z,12.38
2023-07-25T01:35:56.221Z,11.85
2023-07-25T01:38:25.888Z,11.55
2023-07-25T01:40:55.620Z,11.35
2023-07-25T01:43:25.359Z,11.40
2023-07-25T01:45:55.100Z,10.90
2023-07-25T01:48:24.768Z,11.13
2023-07-25T01:50:54.456Z,12.15
2023-07-25T01:53:24.253Z,12.13
2023-07-25T01:55:54.287Z,11.52
2023-07-25T01:58:23.981Z,12.18
2023-07-25T02:01:00.587Z,11.55
2023-07-25T02:03:30.455Z,11.30
2023-07-25T02:06:00.500Z,13.05
2023-07-25T02:08:30.145Z,10.68
2023-07-25T02:11:00.629Z,11.13
2023-07-25T02:13:31.351Z,11.55
2023-07-25T02:16:01.052Z,10.40
2023-07-25T02:18:30.694Z,12.85
2023-07-25T02:21:00.698Z,12.10
2023-07-25T02:23:30.472Z,11.77
2023-07-25T02:26:00.220Z,11.35
2023-07-25T02:28:30.075Z,11.68
2023-07-25T02:30:59.837Z,11.80
2023-07-25T02:33:29.502Z,12.65
2023-07-25T02:35:59.152Z,12.85
2023-07-25T02:38:28.881Z,12.05
2023-07-25T02:41:01.063Z,11.90
2023-07-25T02:43:30.867Z,11.60
2023-07-25T02:46:00.566Z,11.55
2023-07-25T02:48:30.246Z,12.63
2023-07-25T02:51:00.273Z,12.27
2023-07-25T02:53:32.647Z,13.75
2023-07-25T02:56:02.286Z,12.20
2023-07-25T02:58:33.105Z,12.85
2023-07-25T03:01:03.194Z,11.13
2023-07-25T03:03:32.933Z,11.68
2023-07-25T03:06:03.274Z,11.23
2023-07-25T03:08:32.970Z,11.65
2023-07-25T03:11:03.026Z,13.02
2023-07-25T03:13:32.892Z,13.88
2023-07-25T03:16:02.617Z,12.88
2023-07-25T03:18:32.335Z,14.15
2023-07-25T03:21:02.705Z,12.07
2023-07-25T03:23:32.533Z,11.50
2023-07-25T03:26:06.231Z,12.55
2023-07-25T03:28:35.908Z,11.93
2023-07-25T03:31:05.653Z,11.88
2023-07-25T03:33:35.767Z,11.95
2023-07-25T03:36:06.446Z,10.95
2023-07-25T03:38:36.333Z,11.73
2023-07-25T03:41:06.056Z,13.32
2023-07-25T03:43:35.784Z,12.20
2023-07-25T03:46:06.238Z,11.65
2023-07-25T03:48:35.987Z,11.60
2023-07-25T03:51:05.760Z,12.63
2023-07-25T03:53:35.457Z,12.07
2023-07-25T03:56:05.681Z,12.02
2023-07-25T03:58:35.778Z,11.82
2023-07-25T04:01:05.511Z,13.63
2023-07-25T04:03:35.335Z,11.05
2023-07-25T04:06:05.166Z,13.52
2023-07-25T04:08:34.883Z,11.70
2023-07-25T04:11:04.949Z,12.57
2023-07-25T04:13:35.030Z,12.63
2023-07-25T04:16:05.155Z,11.82
2023-07-25T04:18:34.836Z,12.90
2023-07-25T04:21:04.596Z,12.38
2023-07-25T04:23:34.298Z,12.40
2023-07-25T04:26:04.078Z,11.82
2023-07-25T04:28:33.744Z,13.20
2023-07-25T04:31:03.756Z,12.90
2023-07-25T04:33:34.229Z,13.82
2023-07-25T04:36:03.958Z,11.43
2023-07-25T04:38:33.833Z,12.80
2023-07-25T04:41:04.050Z,12.00
2023-07-25T04:43:33.821Z,11.98
2023-07-25T04:46:03.570Z,13.05
2023-07-25T04:48:34.270Z,12.50
2023-07-25T04:51:04.296Z,13.68
2023-07-25T04:53:34.407Z,12.02
2023-07-25T04:56:04.423Z,13.30
2023-07-25T04:58:35.274Z,11.48
2023-07-25T05:01:04.995Z,11.43
2023-07-25T05:03:35.281Z,12.15
2023-07-25T05:06:05.144Z,12.60
2023-07-25T05:08:35.207Z,11.90
2023-07-25T05:11:05.021Z,11.68
2023-07-25T05:13:34.803Z,14.25
2023-07-25T05:16:04.589Z,14.35
2023-07-25T05:18:34.995Z,11.95
2023-07-25T05:21:04.733Z,11.85
2023-07-25T05:23:34.449Z,11.88
2023-07-25T05:26:04.503Z,12.00
2023-07-25T05:28:34.968Z,10.68
2023-07-25T05:31:06.343Z,11.27
2023-07-25T05:33:36.096Z,12.48
2023-07-25T05:36:06.508Z,11.45
2023-07-25T05:38:36.223Z,11.48
2023-07-25T05:41:06.265Z,11.98
2023-07-25T05:43:36.135Z,11.13
2023-07-25T05:46:05.872Z,11.48
2023-07-25T05:48:35.549Z,11.98
2023-07-25T05:51:05.627Z,11.77
2023-07-25T05:53:38.154Z,12.20
2023-07-25T05:56:07.931Z,12.57
2023-07-25T05:58:37.722Z,11.10
2023-07-25T06:01:07.789Z,11.75
2023-07-25T06:03:37.507Z,12.48
2023-07-25T06:06:07.317Z,13.10
2023-07-25T06:08:37.365Z,10.75
2023-07-25T06:11:07.037Z,11.85
2023-07-25T06:13:36.828Z,11.52
2023-07-25T06:16:07.357Z,11.65
2023-07-25T06:18:37.212Z,12.20
2023-07-25T06:21:06.932Z,11.63
2023-07-25T06:23:36.647Z,11.13
2023-07-25T06:26:06.337Z,12.27
2023-07-25T06:28:36.012Z,10.48
2023-07-25T06:31:06.389Z,10.52
2023-07-25T06:33:36.317Z,11.70
2023-07-25T06:36:06.643Z,11.70
2023-07-25T06:38:37.414Z,10.60
2023-07-25T06:41:07.086Z,11.43
2023-07-25T06:43:36.767Z,11.82
2023-07-25T06:46:06.892Z,10.48
2023-07-25T06:48:36.619Z,11.13
2023-07-25T06:51:07.069Z,12.13
2023-07-25T06:53:37.125Z,10.65
2023-07-25T06:56:07.451Z,10.85
2023-07-25T06:58:37.145Z,11.77
2023-07-25T07:01:07.197Z,11.07
2023-07-25T07:03:38.035Z,9.30
2023-07-25T07:06:08.157Z,10.88
2023-07-25T07:08:37.934Z,10.18
2023-07-25T07:11:07.621Z,12.30
2023-07-25T07:13:37.610Z,9.80
2023-07-25T07:16:07.631Z,10.50
2023-07-25T07:18:37.354Z,9.80
2023-07-25T07:21:08.072Z,10.27
2023-07-25T07:23:37.742Z,9.98
2023-07-25T07:26:07.497Z,10.13
2023-07-25T07:28:37.207Z,10.48
2023-07-25T07:31:07.747Z,9.93
2023-07-25T07:33:37.534Z,12.80
2023-07-25T07:36:07.782Z,9.60
2023-07-25T07:38:37.496Z,10.52
2023-07-25T07:41:07.177Z,9.15
2023-07-25T07:43:37.871Z,9.88
2023-07-25T07:46:07.661Z,9.85
2023-07-25T07:48:37.381Z,10.45
2023-07-25T07:51:07.804Z,9.00
2023-07-25T07:53:37.545Z,10.00
2023-07-25T07:56:08.481Z,8.90
2023-07-25T07:58:38.290Z,8.95
2023-07-25T08:01:18.670Z,10.60
2023-07-25T08:03:48.636Z,8.40
2023-07-25T08:06:18.374Z,8.75
2023-07-25T08:08:48.111Z,8.90
2023-07-25T08:11:17.855Z,9.02
2023-07-25T08:13:47.524Z,8.55
2023-07-25T08:16:35.547Z,8.93
2023-07-25T08:19:05.293Z,10.18
2023-07-25T08:21:37.133Z,8.88
2023-07-25T08:24:07.502Z,9.32
2023-07-25T08:26:38.180Z,7.90
2023-07-25T08:29:07.854Z,7.82
2023-07-25T08:31:37.624Z,9.02
2023-07-25T08:34:07.325Z,8.15
2023-07-25T08:36:36.986Z,8.43
2023-07-25T08:39:06.694Z,8.02
2023-07-25T08:41:39.984Z,8.35
2023-07-25T08:44:12.370Z,8.88
2023-07-25T08:46:47.451Z,8.27
2023-07-25T08:51:50.160Z,8.95
2023-07-25T08:54:25.853Z,7.97
2023-07-25T08:56:56.265Z,7.57
2023-07-25T08:59:26.988Z,8.20
2023-07-25T09:01:57.262Z,8.00
2023-07-25T09:04:28.869Z,8.32
2023-07-25T09:06:58.911Z,8.93
2023-07-25T09:09:28.550Z,8.75
2023-07-25T09:11:58.477Z,8.43
2023-07-25T09:14:28.232Z,7.93
2023-07-25T09:16:57.933Z,6.90
2023-07-25T09:19:27.663Z,7.90
2023-07-25T09:22:00.016Z,6.90
2023-07-25T09:24:40.103Z,7.18
2023-07-25T09:27:19.585Z,7.47
2023-07-25T09:29:52.529Z,7.03
2023-07-25T09:32:24.748Z,9.02
2023-07-25T09:35:02.513Z,9.13
2023-07-25T09:37:32.293Z,7.57
2023-07-25T09:40:02.088Z,6.82
2023-07-25T09:42:31.773Z,7.85
2023-07-25T09:45:02.130Z,7.55
2023-07-25T09:47:32.823Z,7.10
2023-07-25T09:50:02.918Z,7.68
2023-07-25T09:52:43.087Z,8.43
2023-07-25T09:55:12.844Z,6.43
2023-07-25T09:57:42.674Z,7.95
2023-07-25T10:00:12.893Z,7.00
2023-07-25T10:02:42.583Z,8.90
2023-07-25T10:05:12.281Z,8.30
2023-07-25T10:07:42.694Z,8.88
2023-07-25T10:10:12.698Z,7.63
2023-07-25T10:12:43.132Z,8.63
2023-07-25T10:15:13.651Z,7.38
2023-07-25T10:17:43.467Z,6.55
2023-07-25T10:20:14.192Z,7.60
2023-07-25T10:22:45.129Z,7.30
2023-07-25T10:25:20.779Z,6.80
2023-07-25T10:27:50.602Z,6.60
2023-07-25T10:30:27.307Z,8.88
2023-07-25T10:33:07.006Z,7.30
2023-07-25T10:35:58.821Z,7.53
2023-07-25T10:38:45.724Z,6.32
2023-07-25T10:41:22.561Z,6.82
2023-07-25T10:43:54.604Z,6.63
2023-07-25T10:46:25.537Z,5.38
2023-07-25T10:49:05.386Z,6.63
2023-07-25T10:51:54.776Z,7.13
2023-07-25T10:54:27.364Z,5.30
2023-07-25T10:57:17.349Z,6.90
2023-07-25T11:00:03.265Z,6.10
2023-07-25T11:02:33.692Z,8.00
2023-07-25T11:05:18.324Z,6.95
2023-07-25T11:07:50.951Z,5.95
2023-07-25T11:10:30.592Z,8.90
2023-07-25T11:13:02.037Z,6.22
2023-07-25T11:15:46.716Z,8.27
2023-07-25T11:18:17.590Z,6.10
2023-07-25T11:20:47.320Z,6.05
2023-07-25T11:23:17.209Z,6.30
2023-07-25T11:25:59.762Z,6.05
2023-07-25T11:28:31.605Z,9.18
2023-07-25T11:31:01.495Z,5.50
2023-07-25T11:33:31.208Z,7.80
2023-07-25T11:36:01.456Z,7.75
2023-07-25T11:38:31.133Z,5.78
2023-07-25T11:41:02.436Z,6.72
2023-07-25T11:43:32.802Z,5.97
2023-07-25T11:46:02.558Z,5.72
2023-07-25T11:48:32.772Z,6.90
2023-07-25T11:51:02.480Z,6.72
2023-07-25T11:53:33.348Z,7.18
2023-07-25T11:56:03.649Z,8.05
2023-07-25T11:58:33.387Z,5.78
2023-07-25T12:01:04.139Z,7.97
2023-07-25T12:03:34.461Z,8.73
2023-07-25T12:06:04.817Z,3.85
2023-07-25T12:08:50.112Z,5.85
2023-07-25T12:11:20.759Z,8.57
2023-07-25T12:14:01.177Z,6.13
2023-07-25T12:16:33.324Z,7.47
2023-07-25T12:19:23.982Z,9.25
2023-07-25T12:21:53.674Z,5.85
2023-07-25T12:24:23.369Z,7.40
2023-07-25T12:26:57.524Z,5.68
2023-07-25T12:29:27.556Z,5.78
2023-07-25T12:31:57.371Z,6.18
2023-07-25T12:34:27.157Z,5.32
2023-07-25T12:36:56.829Z,10.25
2023-07-25T12:39:26.558Z,6.32
2023-07-25T12:41:58.502Z,8.15
2023-07-25T12:44:28.232Z,6.88
2023-07-25T12:46:58.406Z,6.53
2023-07-25T12:49:28.809Z,6.95
2023-07-25T12:52:01.810Z,5.95
2023-07-25T12:54:31.571Z,6.35
2023-07-25T12:57:02.137Z,9.02
2023-07-25T12:59:34.552Z,6.28
2023-07-25T13:02:04.359Z,5.55
2023-07-25T13:04:34.608Z,5.03
2023-07-25T13:07:04.509Z,6.53
2023-07-25T13:09:34.298Z,6.22
2023-07-25T13:12:04.642Z,5.82
2023-07-25T13:14:34.644Z,5.85
2023-07-25T13:17:04.422Z,6.60
2023-07-25T13:19:34.550Z,6.72
2023-07-25T13:22:04.454Z,6.03
2023-07-25T13:24:34.195Z,7.70
2023-07-25T13:27:03.939Z,7.65
2023-07-25T13:29:33.669Z,5.82
2023-07-25T13:32:03.345Z,5.30
2023-07-25T13:34:33.617Z,6.40
2023-07-25T13:37:03.720Z,10.65
2023-07-25T13:39:33.450Z,7.35
2023-07-25T13:42:03.228Z,5.63
2023-07-25T13:44:32.907Z,7.05
2023-07-25T13:47:04.780Z,10.73
2023-07-25T13:49:34.578Z,6.95
2023-07-25T13:52:04.642Z,5.75
2023-07-25T13:54:35.216Z,7.10
2023-07-25T13:57:05.326Z,7.45
2023-07-25T13:59:35.076Z,5.82
2023-07-25T14:02:05.749Z,8.02
2023-07-25T14:04:35.633Z,6.18
2023-07-25T14:07:05.378Z,8.90
2023-07-25T14:09:35.312Z,5.68
2023-07-25T14:12:05.073Z,10.27
2023-07-25T14:14:34.764Z,6.25
2023-07-25T14:17:05.955Z,5.60
2023-07-25T14:19:35.747Z,6.70
2023-07-25T14:22:05.554Z,7.95
2023-07-25T14:24:36.411Z,8.38
2023-07-25T14:27:06.295Z,5.95
2023-07-25T14:29:36.973Z,6.15
2023-07-25T14:32:07.350Z,8.15
2023-07-25T14:34:37.051Z,6.32
2023-07-25T14:37:07.046Z,11.05
2023-07-25T14:39:37.543Z,9.52
2023-07-25T14:42:07.427Z,8.77
2023-07-25T14:44:37.147Z,7.30
2023-07-25T14:47:07.117Z,6.30
2023-07-25T14:49:38.641Z,7.53
2023-07-25T14:52:08.927Z,6.60
2023-07-25T14:54:38.622Z,8.85
2023-07-25T14:57:08.701Z,6.90
2023-07-25T14:59:39.176Z,6.57
2023-07-25T15:02:09.493Z,6.47
2023-07-25T15:04:39.207Z,7.35
2023-07-25T15:07:09.117Z,9.38
2023-07-25T15:09:39.757Z,10.45
2023-07-25T15:12:09.578Z,8.95
2023-07-25T15:14:39.279Z,7.50
2023-07-25T15:17:10.089Z,7.85
2023-07-25T15:19:39.880Z,9.93
2023-07-25T15:22:09.587Z,8.60
2023-07-25T15:24:39.340Z,7.20
2023-07-25T15:27:09.518Z,8.73
2023-07-25T15:29:39.630Z,6.38
2023-07-25T15:32:09.756Z,9.02
2023-07-25T15:34:41.397Z,8.65
2023-07-25T15:37:12.208Z,8.85
2023-07-25T15:39:44.713Z,9.18
2023-07-25T15:42:14.465Z,8.82
2023-07-25T15:44:44.863Z,7.70
2023-07-25T15:47:14.578Z,7.88
2023-07-25T15:49:44.336Z,7.65
2023-07-25T15:52:14.005Z,8.98
2023-07-25T15:54:43.712Z,7.18
2023-07-25T15:57:13.473Z,9.07
2023-07-25T15:59:43.230Z,6.03
2023-07-25T16:02:14.263Z,9.68
2023-07-25T16:04:44.347Z,8.10
2023-07-25T16:07:14.049Z,9.57
2023-07-25T16:09:44.668Z,5.88
2023-07-25T16:12:14.712Z,8.95
2023-07-25T16:14:44.381Z,6.72
2023-07-25T16:17:14.161Z,5.63
2023-07-25T16:19:44.420Z,6.55
2023-07-25T16:22:14.139Z,6.75
2023-07-25T16:24:44.064Z,7.32
2023-07-25T16:27:14.188Z,9.20
2023-07-25T16:29:44.239Z,7.93
2023-07-25T16:32:13.993Z,7.35
2023-07-25T16:34:43.762Z,11.30
2023-07-25T16:37:13.550Z,8.63
2023-07-25T16:39:43.250Z,6.00
2023-07-25T16:42:14.809Z,7.47
2023-07-25T16:44:44.480Z,5.85
2023-07-25T16:47:14.181Z,9.20
2023-07-25T16:49:43.878Z,6.00
2023-07-25T16:52:13.559Z,8.10
2023-07-25T16:54:43.686Z,5.68
2023-07-25T16:57:13.453Z,9.18
2023-07-25T16:59:43.147Z,7.35
2023-07-25T17:02:15.662Z,6.40
2023-07-25T17:04:45.817Z,8.27
2023-07-25T17:07:15.550Z,6.63
2023-07-25T17:09:45.272Z,7.95
2023-07-25T17:12:14.928Z,7.93
2023-07-25T17:14:44.669Z,8.10
2023-07-25T17:17:14.531Z,6.97
2023-07-25T17:19:44.183Z,6.03
2023-07-25T17:22:13.877Z,7.22
2023-07-25T17:24:43.646Z,10.25
2023-07-25T17:27:13.398Z,8.23
2023-07-25T17:29:43.120Z,8.73
2023-07-25T17:32:13.532Z,5.70
2023-07-25T17:34:43.248Z,7.80
2023-07-25T17:37:13.115Z,9.35
2023-07-25T17:39:42.948Z,7.57
2023-07-25T17:42:13.332Z,8.65
2023-07-25T17:44:43.008Z,7.15
2023-07-25T17:47:12.812Z,4.93
2023-07-25T17:49:42.500Z,6.00
2023-07-25T17:52:12.310Z,8.05
2023-07-25T17:54:42.004Z,6.72
2023-07-25T17:57:13.053Z,8.55
2023-07-25T17:59:42.843Z,7.25
2023-07-25T18:02:12.550Z,7.82
2023-07-25T18:04:42.420Z,10.20
2023-07-25T18:07:12.893Z,6.13
2023-07-25T18:09:42.598Z,6.85
2023-07-25T18:12:12.341Z,7.72
2023-07-25T18:14:42.136Z,8.90
2023-07-25T18:17:11.848Z,6.30
2023-07-25T18:19:41.889Z,7.15
2023-07-25T18:22:11.621Z,6.38
2023-07-25T18:24:41.759Z,6.50
2023-07-25T18:27:11.526Z,7.68
2023-07-25T18:29:41.316Z,6.78
2023-07-25T18:32:11.291Z,7.60
2023-07-25T18:34:41.908Z,8.98
2023-07-25T18:37:12.855Z,7.93
2023-07-25T18:39:44.507Z,10.35
2023-07-25T18:42:14.496Z,8.93
2023-07-25T18:44:44.203Z,5.90
2023-07-25T18:47:21.381Z,6.47
2023-07-25T18:49:58.741Z,7.00
2023-07-25T18:52:28.429Z,6.57
2023-07-25T18:54:58.184Z,5.82
2023-07-25T18:57:27.945Z,6.10
2023-07-25T18:59:58.591Z,6.32
2023-07-25T19:02:28.469Z,7.25
2023-07-25T19:04:58.908Z,6.72
2023-07-25T19:07:28.708Z,8.40
2023-07-25T19:09:59.014Z,8.27
2023-07-25T19:12:29.449Z,8.20
2023-07-25T19:14:59.135Z,8.02
2023-07-25T19:17:31.692Z,4.03
2023-07-25T19:20:01.476Z,5.80
2023-07-25T19:22:33.638Z,6.22
2023-07-25T19:25:04.958Z,8.15
2023-07-25T19:27:34.652Z,7.90
2023-07-25T19:30:04.418Z,8.77
2023-07-25T19:32:34.185Z,6.10
2023-07-25T19:35:08.600Z,8.68
2023-07-25T19:37:41.867Z,6.10
2023-07-25T19:40:12.603Z,7.97
2023-07-25T19:42:43.545Z,7.68
2023-07-25T19:45:13.825Z,9.15
2023-07-25T19:47:44.078Z,4.32
2023-07-25T19:50:14.222Z,7.80
2023-07-25T19:52:44.643Z,5.85
2023-07-25T19:55:14.455Z,7.55
2023-07-25T19:57:44.189Z,7.35
2023-07-25T20:00:16.155Z,6.57
2023-07-25T20:02:46.302Z,5.78
2023-07-25T20:05:17.470Z,5.60
2023-07-25T20:07:47.630Z,6.60
2023-07-25T20:10:17.388Z,6.78
2023-07-25T20:12:47.104Z,5.35
2023-07-25T20:15:19.263Z,5.85
2023-07-25T20:17:50.356Z,8.55
2023-07-25T20:20:20.189Z,6.05
2023-07-25T20:22:49.856Z,7.80
2023-07-25T20:25:19.631Z,5.68
2023-07-25T20:27:49.289Z,7.53
2023-07-25T20:30:19.085Z,6.70
2023-07-25T20:32:48.825Z,6.30
2023-07-25T20:35:18.615Z,8.43
2023-07-25T20:37:48.684Z,6.90
2023-07-25T20:40:18.453Z,8.43
2023-07-25T20:42:48.238Z,7.85
2023-07-25T20:45:19.358Z,4.82
2023-07-25T20:47:50.235Z,7.72
2023-07-25T20:50:20.092Z,7.00
2023-07-25T20:52:50.042Z,5.65
2023-07-25T20:55:19.723Z,7.25
2023-07-25T20:57:50.623Z,8.32
2023-07-25T21:00:20.318Z,6.25
2023-07-25T21:02:53.027Z,5.93
2023-07-25T21:05:22.888Z,8.35
2023-07-25T21:07:53.053Z,6.60
2023-07-25T21:10:22.796Z,9.38
2023-07-25T21:12:53.191Z,7.65
2023-07-25T21:15:22.862Z,5.40
2023-07-25T21:18:06.856Z,6.57
2023-07-25T21:20:42.224Z,6.30
2023-07-25T21:23:13.010Z,6.85
2023-07-25T21:25:45.117Z,4.65
2023-07-25T21:28:14.846Z,6.45
2023-07-25T21:30:44.631Z,7.18
2023-07-25T21:33:14.395Z,6.00
2023-07-25T21:35:44.532Z,4.93
2023-07-25T21:38:14.205Z,4.85
2023-07-25T21:40:44.587Z,7.25
2023-07-25T21:43:14.283Z,5.85
2023-07-25T21:45:44.821Z,8.02
2023-07-25T21:48:14.583Z,5.10
2023-07-25T21:50:44.272Z,6.05
2023-07-25T21:53:13.954Z,6.65
2023-07-25T21:55:43.751Z,9.50
2023-07-25T21:58:13.885Z,5.60
2023-07-25T22:00:43.635Z,8.15
2023-07-25T22:03:13.419Z,5.65
2023-07-25T22:05:43.133Z,8.07
2023-07-25T22:08:12.879Z,8.15
2023-07-25T22:10:42.580Z,5.80
2023-07-25T22:13:15.269Z,9.07
2023-07-25T22:15:44.970Z,6.13
2023-07-25T22:18:15.227Z,4.13
2023-07-25T22:20:51.790Z,5.90
2023-07-25T22:23:24.002Z,6.32
2023-07-25T22:26:03.917Z,5.03
2023-07-25T22:28:34.278Z,7.47
2023-07-25T22:31:04.527Z,5.03
2023-07-25T22:33:34.284Z,5.07
2023-07-25T22:36:04.802Z,6.53
2023-07-25T22:38:34.534Z,6.05
2023-07-25T22:41:04.238Z,7.40
2023-07-25T22:43:34.253Z,7.38
2023-07-25T22:46:04.908Z,6.38
2023-07-25T22:48:35.072Z,6.93
2023-07-25T22:51:05.413Z,5.03
2023-07-25T22:53:35.127Z,5.88
2023-07-25T22:56:05.434Z,4.38
2023-07-25T22:58:36.162Z,4.70
2023-07-25T23:01:05.952Z,4.43
2023-07-25T23:03:38.572Z,5.45
2023-07-25T23:06:08.326Z,5.20
2023-07-25T23:08:38.074Z,3.85
2023-07-25T23:11:07.752Z,4.88
2023-07-25T23:13:37.528Z,4.32
2023-07-25T23:16:07.490Z,4.47
2023-07-25T23:18:37.604Z,8.63
2023-07-25T23:21:07.318Z,7.05
2023-07-25T23:23:37.090Z,4.75
2023-07-25T23:26:06.991Z,4.55
2023-07-25T23:28:36.667Z,6.20
2023-07-25T23:31:06.452Z,4.80
2023-07-25T23:33:36.220Z,5.00
2023-07-25T23:36:06.478Z,5.13
2023-07-25T23:38:36.219Z,4.13
2023-07-25T23:41:06.609Z,4.53
2023-07-25T23:43:36.319Z,4.47
2023-07-25T23:46:06.043Z,3.58
2023-07-25T23:48:38.735Z,3.08
2023-07-25T23:51:09.528Z,3.35
2023-07-25T23:53:39.280Z,4.50
2023-07-25T23:56:09.044Z,7.72
2023-07-25T23:58:39.149Z,4.65
